Terminal Aerodrome Forecast
Issued by NWS

Home | Current Version | Previous Version | Text Only | Print | Product List | Glossary On
Versions: 1 2 3 4 5 6 7 8 9 10 11 12 13 14 15 16 17
000
FTUS43 KDDC 260524
TAFGCK
TAF
KGCK 260524Z 2606/2706 02020G30KT P6SM OVC010
      TEMPO 2606/2610 -RA
     FM261000 36015G25KT P6SM OVC030
     FM261300 35015G25KT P6SM OVC070=

USA.gov is the U.S. government's official web portal to all federal, state and local government web resources and services.